createdAt,value
2018-08-28T00:00:57.317Z,17.40
2018-08-28T00:03:26.330Z,17.30
2018-08-28T00:05:54.788Z,17.20
2018-08-28T00:08:23.316Z,17.20
2018-08-28T00:10:52.088Z,17.20
2018-08-28T00:13:20.548Z,17.20
2018-08-28T00:15:49.145Z,17.10
2018-08-28T00:18:17.617Z,17.10
2018-08-28T00:20:46.028Z,17.10
2018-08-28T00:23:14.503Z,17.00
2018-08-28T00:25:42.928Z,17.00
2018-08-28T00:28:11.439Z,16.90
2018-08-28T00:30:39.869Z,16.80
2018-08-28T00:33:09.245Z,16.80
2018-08-28T00:35:37.775Z,16.70
2018-08-28T00:38:06.160Z,16.70
2018-08-28T00:40:34.612Z,16.60
2018-08-28T00:43:03.065Z,16.60
2018-08-28T00:45:31.508Z,16.50
2018-08-28T00:47:59.886Z,16.50
2018-08-28T00:50:28.422Z,16.40
2018-08-28T00:52:57.021Z,16.40
2018-08-28T00:55:25.453Z,16.40
2018-08-28T00:57:54.111Z,16.40
2018-08-28T01:00:24.642Z,16.30
2018-08-28T01:02:53.328Z,16.20
2018-08-28T01:05:23.766Z,16.10
2018-08-28T01:07:52.947Z,16.10
2018-08-28T01:10:21.447Z,16.00
2018-08-28T01:12:49.896Z,16.00
2018-08-28T01:15:18.366Z,16.00
2018-08-28T01:17:46.855Z,15.90
2018-08-28T01:20:15.236Z,15.80
2018-08-28T01:22:43.665Z,15.80
2018-08-28T01:25:12.044Z,15.80
2018-08-28T01:27:40.523Z,15.70
2018-08-28T01:30:08.940Z,15.70
2018-08-28T01:32:37.348Z,15.60
2018-08-28T01:35:05.820Z,15.60
2018-08-28T01:37:34.188Z,15.50
2018-08-28T01:40:02.580Z,15.30
2018-08-28T01:42:30.972Z,15.30
2018-08-28T01:44:59.460Z,15.30
2018-08-28T01:47:27.817Z,15.40
2018-08-28T01:49:56.190Z,15.30
2018-08-28T01:52:24.559Z,15.30
2018-08-28T01:54:52.984Z,15.20
2018-08-28T01:57:21.422Z,15.10
2018-08-28T01:59:49.799Z,15.00
2018-08-28T02:02:18.417Z,15.10
2018-08-28T02:04:46.811Z,15.00
2018-08-28T02:07:15.201Z,15.00
2018-08-28T02:09:43.707Z,15.00
2018-08-28T02:12:12.088Z,14.90
2018-08-28T02:14:40.461Z,14.80
2018-08-28T02:17:08.864Z,14.80
2018-08-28T02:19:37.262Z,14.70
2018-08-28T02:22:05.718Z,14.60
2018-08-28T02:24:34.138Z,14.40
2018-08-28T02:27:02.586Z,14.40
2018-08-28T02:29:30.994Z,14.40
2018-08-28T02:31:59.384Z,14.40
2018-08-28T02:34:27.828Z,14.30
2018-08-28T02:36:56.242Z,14.30
2018-08-28T02:39:24.694Z,14.30
2018-08-28T02:41:53.134Z,14.30
2018-08-28T02:44:21.528Z,14.30
2018-08-28T02:46:49.932Z,14.20
2018-08-28T02:49:18.366Z,14.30
2018-08-28T02:51:46.741Z,14.10
2018-08-28T02:54:15.177Z,14.00
2018-08-28T02:56:43.687Z,14.00
2018-08-28T02:59:12.192Z,14.00
2018-08-28T03:01:40.555Z,13.90
2018-08-28T03:04:08.954Z,13.90
2018-08-28T03:06:37.424Z,13.90
2018-08-28T03:09:06.979Z,13.90
2018-08-28T03:11:35.434Z,13.70
2018-08-28T03:14:03.796Z,13.70
2018-08-28T03:16:32.184Z,13.70
2018-08-28T03:19:00.589Z,13.60
2018-08-28T03:21:29.058Z,13.60
2018-08-28T03:23:57.687Z,13.50
2018-08-28T03:26:26.085Z,13.40
2018-08-28T03:28:54.564Z,13.40
2018-08-28T03:31:22.989Z,13.40
2018-08-28T03:33:51.385Z,13.40
2018-08-28T03:36:19.798Z,13.30
2018-08-28T03:38:48.210Z,13.20
2018-08-28T03:41:16.656Z,13.20
2018-08-28T03:43:45.185Z,13.20
2018-08-28T03:46:13.603Z,13.20
2018-08-28T03:48:41.967Z,13.10
2018-08-28T03:51:10.428Z,13.10
2018-08-28T03:53:38.854Z,13.00
2018-08-28T03:56:07.511Z,13.00
2018-08-28T03:58:35.931Z,13.00
2018-08-28T04:01:04.367Z,12.90
2018-08-28T04:03:32.862Z,12.90
2018-08-28T04:06:01.243Z,12.90
2018-08-28T04:08:29.695Z,12.90
2018-08-28T04:10:58.075Z,12.80
2018-08-28T04:13:26.443Z,12.80
2018-08-28T04:15:54.804Z,12.70
2018-08-28T04:18:23.272Z,12.60
2018-08-28T04:20:51.676Z,12.60
2018-08-28T04:23:20.115Z,12.60
2018-08-28T04:25:48.537Z,12.70
2018-08-28T04:28:17.038Z,12.60
2018-08-28T04:30:45.454Z,12.60
2018-08-28T04:33:13.887Z,12.60
2018-08-28T04:35:42.279Z,12.50
2018-08-28T04:38:10.824Z,12.50
2018-08-28T04:40:39.472Z,12.50
2018-08-28T04:43:07.955Z,12.60
2018-08-28T04:45:36.415Z,12.60
2018-08-28T04:48:04.870Z,12.60
2018-08-28T04:50:33.239Z,12.50
2018-08-28T04:53:01.662Z,12.50
2018-08-28T04:55:30.456Z,12.50
2018-08-28T04:57:58.835Z,12.50
2018-08-28T05:00:27.462Z,12.50
2018-08-28T05:02:55.859Z,12.40
2018-08-28T05:05:24.232Z,12.40
2018-08-28T05:07:52.718Z,12.40
2018-08-28T05:10:21.155Z,12.40
2018-08-28T05:12:49.676Z,12.30
2018-08-28T05:15:18.235Z,12.30
2018-08-28T05:17:46.627Z,12.30
2018-08-28T05:20:15.093Z,12.40
2018-08-28T05:22:43.518Z,12.40
2018-08-28T05:25:12.001Z,12.40
2018-08-28T05:27:40.401Z,12.40
2018-08-28T05:30:08.812Z,12.40
2018-08-28T05:32:37.247Z,12.40
2018-08-28T05:35:06.347Z,12.40
2018-08-28T05:37:34.823Z,12.50
2018-08-28T05:40:03.266Z,12.50
2018-08-28T05:42:31.669Z,12.50
2018-08-28T05:45:00.052Z,12.50
2018-08-28T05:47:28.527Z,12.50
2018-08-28T05:49:57.016Z,12.60
2018-08-28T05:52:25.392Z,12.60
2018-08-28T05:54:53.798Z,12.60
2018-08-28T05:57:22.185Z,12.70
2018-08-28T05:59:50.565Z,12.70
2018-08-28T06:02:18.979Z,12.80
2018-08-28T06:04:47.343Z,12.90
2018-08-28T06:07:15.876Z,12.90
2018-08-28T06:09:44.432Z,13.00
2018-08-28T06:12:12.807Z,13.00
2018-08-28T06:14:41.474Z,13.10
2018-08-28T06:17:09.895Z,13.10
2018-08-28T06:19:38.305Z,13.20
2018-08-28T06:22:06.790Z,13.30
2018-08-28T06:24:35.261Z,13.40
2018-08-28T06:27:03.644Z,13.40
2018-08-28T06:29:32.078Z,13.50
2018-08-28T06:32:00.520Z,13.60
2018-08-28T06:34:28.939Z,13.70
2018-08-28T06:36:57.417Z,13.70
2018-08-28T06:39:25.850Z,13.80
2018-08-28T06:41:54.277Z,13.90
2018-08-28T06:44:22.758Z,14.00
2018-08-28T06:46:51.511Z,14.20
2018-08-28T06:49:20.310Z,14.20
2018-08-28T06:51:48.788Z,14.40
2018-08-28T06:54:17.623Z,14.50
2018-08-28T06:56:46.198Z,14.60
2018-08-28T06:59:14.671Z,14.70
2018-08-28T07:01:43.068Z,14.80
2018-08-28T07:04:11.558Z,14.90
2018-08-28T07:06:39.996Z,15.00
2018-08-28T07:09:08.864Z,15.20
2018-08-28T07:11:37.550Z,15.30
2018-08-28T07:14:06.229Z,15.40
2018-08-28T07:16:34.617Z,15.50
2018-08-28T07:19:03.028Z,15.60
2018-08-28T07:21:31.417Z,15.70
2018-08-28T07:23:59.815Z,15.90
2018-08-28T07:26:28.351Z,16.00
2018-08-28T07:28:56.798Z,16.10
2018-08-28T07:31:25.403Z,16.20
2018-08-28T07:33:53.740Z,16.40
2018-08-28T07:36:22.172Z,16.50
2018-08-28T07:38:50.604Z,16.60
2018-08-28T07:41:19.030Z,16.70
2018-08-28T07:43:47.471Z,16.80
2018-08-28T07:46:15.878Z,17.00
2018-08-28T07:48:44.306Z,17.10
2018-08-28T07:51:12.778Z,17.30
2018-08-28T07:53:41.382Z,17.50
2018-08-28T07:56:09.755Z,17.60
2018-08-28T07:58:38.146Z,17.80
2018-08-28T08:01:06.616Z,18.00
2018-08-28T08:03:35.151Z,18.10
2018-08-28T08:06:03.524Z,18.30
2018-08-28T08:08:32.046Z,18.50
2018-08-28T08:11:00.553Z,18.60
2018-08-28T08:13:28.992Z,18.80
2018-08-28T08:15:57.372Z,18.90
2018-08-28T08:18:25.815Z,19.10
2018-08-28T08:20:54.187Z,19.10
2018-08-28T08:23:22.580Z,19.40
2018-08-28T08:25:50.955Z,19.60
2018-08-28T08:28:19.577Z,19.90
2018-08-28T08:30:47.899Z,20.40
2018-08-28T08:33:16.285Z,21.10
2018-08-28T08:35:44.680Z,21.70
2018-08-28T08:38:13.180Z,22.20
2018-08-28T08:40:41.589Z,22.60
2018-08-28T08:43:09.975Z,23.20
2018-08-28T08:45:38.459Z,23.60
2018-08-28T08:48:06.865Z,24.40
2018-08-28T08:50:35.299Z,24.20
2018-08-28T08:53:03.732Z,24.20
2018-08-28T08:55:32.150Z,24.50
2018-08-28T08:58:00.549Z,25.20
2018-08-28T09:00:29.052Z,25.70
2018-08-28T09:02:57.456Z,25.70
2018-08-28T09:05:25.823Z,25.70
2018-08-28T09:07:54.276Z,25.90
2018-08-28T09:10:22.697Z,26.30
2018-08-28T09:12:51.101Z,27.30
2018-08-28T09:15:19.603Z,27.40
2018-08-28T09:17:48.008Z,27.40
2018-08-28T09:20:16.458Z,27.50
2018-08-28T09:22:44.867Z,27.90
2018-08-28T09:25:13.371Z,27.90
2018-08-28T09:27:41.790Z,27.60
2018-08-28T09:30:10.427Z,28.30
2018-08-28T09:32:38.937Z,28.20
2018-08-28T09:35:07.428Z,28.60
2018-08-28T09:37:35.872Z,29.00
2018-08-28T09:40:04.377Z,28.90
2018-08-28T09:42:32.755Z,29.00
2018-08-28T09:45:01.206Z,29.10
2018-08-28T09:47:29.624Z,29.00
2018-08-28T09:49:58.083Z,29.30
2018-08-28T09:52:26.537Z,29.40
2018-08-28T09:54:54.928Z,29.40
2018-08-28T09:57:23.362Z,29.20
2018-08-28T09:59:51.770Z,29.10
2018-08-28T10:02:20.286Z,29.20
2018-08-28T10:04:48.803Z,29.30
2018-08-28T10:07:17.128Z,29.30
2018-08-28T10:09:45.662Z,30.00
2018-08-28T10:12:14.079Z,30.30
2018-08-28T10:14:49.243Z,30.30
2018-08-28T10:17:17.687Z,30.20
2018-08-28T10:19:46.209Z,30.10
2018-08-28T10:22:14.680Z,30.10
2018-08-28T10:24:43.137Z,30.10
2018-08-28T10:27:11.568Z,31.10
2018-08-28T10:29:40.038Z,31.20
2018-08-28T10:32:08.529Z,31.50
2018-08-28T10:34:36.966Z,31.90
2018-08-28T10:37:05.808Z,31.60
2018-08-28T10:39:34.285Z,31.60
2018-08-28T10:42:02.714Z,31.70
2018-08-28T10:44:31.184Z,32.50
2018-08-28T10:46:59.706Z,32.50
2018-08-28T10:49:28.092Z,32.70
2018-08-28T10:51:56.552Z,33.00
2018-08-28T10:54:24.996Z,33.10
2018-08-28T10:56:53.489Z,33.60
2018-08-28T10:59:21.979Z,33.60
2018-08-28T11:01:50.409Z,33.30
2018-08-28T11:04:18.880Z,33.20
2018-08-28T11:06:47.398Z,32.90
2018-08-28T11:09:15.837Z,33.10
2018-08-28T11:11:44.331Z,33.20
2018-08-28T11:14:12.796Z,33.60
2018-08-28T11:16:41.291Z,33.70
2018-08-28T11:19:09.804Z,34.20
2018-08-28T11:21:38.236Z,34.40
2018-08-28T11:24:06.699Z,34.40
2018-08-28T11:26:35.195Z,34.30
2018-08-28T11:29:03.637Z,34.30
2018-08-28T11:31:32.084Z,34.40
2018-08-28T11:34:00.526Z,34.70
2018-08-28T11:36:29.094Z,34.40
2018-08-28T11:38:57.553Z,34.40
2018-08-28T11:41:26.215Z,34.10
2018-08-28T11:43:54.666Z,34.10
2018-08-28T11:46:23.093Z,34.10
2018-08-28T11:48:51.550Z,34.70
2018-08-28T11:51:20.008Z,34.70
2018-08-28T11:53:48.413Z,34.70
2018-08-28T11:56:16.956Z,35.10
2018-08-28T11:58:45.451Z,34.90
2018-08-28T12:01:13.948Z,35.30
2018-08-28T12:03:42.512Z,35.30
2018-08-28T12:06:10.934Z,35.80
2018-08-28T12:08:39.416Z,35.90
2018-08-28T12:11:07.891Z,36.30
2018-08-28T12:13:36.331Z,36.30
2018-08-28T12:16:04.934Z,36.40
2018-08-28T12:18:33.395Z,35.80
2018-08-28T12:21:01.917Z,35.40
2018-08-28T12:23:30.386Z,35.90
2018-08-28T12:25:58.791Z,35.80
2018-08-28T12:28:27.279Z,35.70
2018-08-28T12:30:55.799Z,35.60
2018-08-28T12:33:24.238Z,35.60
2018-08-28T12:35:52.690Z,35.80
2018-08-28T12:38:21.163Z,35.50
2018-08-28T12:40:49.602Z,35.50
2018-08-28T12:43:18.119Z,35.60
2018-08-28T12:45:46.815Z,35.60
2018-08-28T12:48:15.281Z,36.00
2018-08-28T12:50:43.834Z,36.60
2018-08-28T12:53:12.335Z,36.80
2018-08-28T12:55:40.835Z,36.40
2018-08-28T12:58:09.347Z,37.00
2018-08-28T13:00:38.419Z,37.10
2018-08-28T13:03:06.543Z,37.10
2018-08-28T13:05:34.973Z,36.90
2018-08-28T13:08:03.508Z,36.90
2018-08-28T13:10:32.128Z,36.70
2018-08-28T13:13:00.736Z,36.70
2018-08-28T13:15:29.349Z,37.10
2018-08-28T13:17:57.811Z,37.30
2018-08-28T13:20:26.191Z,37.10
2018-08-28T13:22:54.628Z,37.00
2018-08-28T13:25:23.400Z,36.70
2018-08-28T13:27:51.788Z,37.00
2018-08-28T13:30:20.213Z,36.90
2018-08-28T13:32:48.661Z,37.40
2018-08-28T13:35:17.131Z,36.80
2018-08-28T13:37:45.630Z,37.00
2018-08-28T13:40:14.195Z,36.70
2018-08-28T13:42:42.718Z,37.10
2018-08-28T13:45:11.245Z,37.60
2018-08-28T13:47:39.690Z,38.10
2018-08-28T13:50:08.304Z,38.90
2018-08-28T13:52:36.921Z,39.00
2018-08-28T13:55:05.420Z,39.00
2018-08-28T13:57:33.948Z,39.00
2018-08-28T14:00:02.572Z,38.50
2018-08-28T14:02:31.053Z,38.70
2018-08-28T14:04:59.549Z,38.20
2018-08-28T14:07:28.057Z,38.50
2018-08-28T14:09:56.529Z,38.40
2018-08-28T14:12:25.023Z,38.10
2018-08-28T14:14:53.551Z,37.80
2018-08-28T14:17:21.981Z,38.00
2018-08-28T14:19:50.828Z,38.20
2018-08-28T14:22:19.336Z,38.70
2018-08-28T14:24:47.867Z,39.20
2018-08-28T14:27:16.332Z,38.70
2018-08-28T14:29:44.813Z,38.40
2018-08-28T14:32:13.277Z,38.80
2018-08-28T14:34:41.743Z,39.20
2018-08-28T14:37:10.287Z,39.00
2018-08-28T14:39:38.829Z,38.70
2018-08-28T14:42:07.309Z,38.80
2018-08-28T14:44:35.701Z,38.80
2018-08-28T14:47:04.195Z,38.40
2018-08-28T14:49:33.130Z,38.20
2018-08-28T14:52:01.611Z,38.40
2018-08-28T14:54:30.252Z,37.60
2018-08-28T14:56:58.903Z,36.90
2018-08-28T14:59:27.329Z,36.80
2018-08-28T15:01:56.274Z,37.40
2018-08-28T15:04:24.762Z,37.70
2018-08-28T15:06:53.330Z,38.20
2018-08-28T15:09:22.217Z,38.40
2018-08-28T15:11:51.078Z,38.80
2018-08-28T15:14:20.361Z,38.00
2018-08-28T15:16:49.340Z,37.30
2018-08-28T15:19:18.253Z,37.50
2018-08-28T15:21:47.173Z,38.10
2018-08-28T15:24:16.177Z,38.30
2018-08-28T15:26:45.230Z,38.40
2018-08-28T15:29:14.106Z,38.70
2018-08-28T15:31:42.507Z,38.40
2018-08-28T15:34:10.986Z,38.00
2018-08-28T15:36:39.446Z,38.20
2018-08-28T15:39:08.141Z,37.60
2018-08-28T15:41:36.742Z,37.80
2018-08-28T15:44:05.172Z,37.70
2018-08-28T15:46:33.653Z,37.50
2018-08-28T15:49:02.177Z,36.50
2018-08-28T15:51:30.829Z,35.90
2018-08-28T15:53:59.244Z,35.10
2018-08-28T15:56:27.649Z,34.30
2018-08-28T15:58:56.188Z,33.50
2018-08-28T16:01:25.104Z,33.40
2018-08-28T16:03:53.735Z,33.40
2018-08-28T16:06:22.402Z,33.40
2018-08-28T16:08:50.972Z,32.90
2018-08-28T16:11:19.497Z,32.60
2018-08-28T16:13:47.997Z,32.40
2018-08-28T16:16:16.520Z,32.20
2018-08-28T16:18:45.512Z,32.30
2018-08-28T16:21:15.883Z,32.30
2018-08-28T16:23:46.562Z,32.10
2018-08-28T16:26:15.484Z,31.90
2018-08-28T16:28:44.614Z,31.90
2018-08-28T16:31:13.656Z,31.70
2018-08-28T16:33:43.108Z,31.30
2018-08-28T16:36:11.562Z,31.10
2018-08-28T16:38:40.528Z,30.90
2018-08-28T16:41:09.059Z,30.80
2018-08-28T16:43:37.468Z,30.90
2018-08-28T16:46:05.950Z,30.90
2018-08-28T16:48:34.547Z,30.70
2018-08-28T16:51:03.034Z,30.60
2018-08-28T16:53:31.432Z,30.50
2018-08-28T16:55:59.940Z,30.30
2018-08-28T16:58:28.415Z,30.20
2018-08-28T17:00:56.911Z,29.90
2018-08-28T17:03:25.380Z,29.60
2018-08-28T17:05:53.845Z,29.50
2018-08-28T17:08:22.279Z,29.50
2018-08-28T17:10:50.858Z,29.50
2018-08-28T17:13:19.360Z,29.30
2018-08-28T17:15:47.750Z,29.10
2018-08-28T17:18:16.212Z,28.80
2018-08-28T17:20:44.619Z,28.70
2018-08-28T17:23:13.049Z,28.50
2018-08-28T17:25:41.458Z,28.40
2018-08-28T17:28:09.883Z,28.30
2018-08-28T17:30:39.128Z,28.30
2018-08-28T17:33:07.570Z,28.20
2018-08-28T17:35:35.970Z,28.00
2018-08-28T17:38:04.550Z,27.90
2018-08-28T17:40:33.018Z,27.80
2018-08-28T17:43:01.498Z,27.70
2018-08-28T17:45:30.042Z,27.60
2018-08-28T17:47:58.632Z,27.40
2018-08-28T17:50:27.713Z,27.20
2018-08-28T17:52:56.315Z,27.00
2018-08-28T17:55:24.839Z,27.00
2018-08-28T17:57:53.310Z,26.90
2018-08-28T18:00:22.434Z,26.80
2018-08-28T18:02:50.839Z,26.70
2018-08-28T18:05:19.455Z,26.50
2018-08-28T18:07:47.856Z,26.40
2018-08-28T18:10:16.348Z,26.30
2018-08-28T18:12:44.906Z,26.00
2018-08-28T18:15:13.387Z,26.00
2018-08-28T18:17:41.822Z,25.90
2018-08-28T18:20:10.708Z,25.70
2018-08-28T18:22:39.591Z,25.40
2018-08-28T18:25:07.862Z,25.10
2018-08-28T18:27:36.344Z,24.90
2018-08-28T18:30:05.006Z,24.70
2018-08-28T18:32:33.585Z,24.40
2018-08-28T18:35:02.068Z,24.10
2018-08-28T18:37:31.431Z,23.90
2018-08-28T18:40:00.077Z,23.70
2018-08-28T18:42:29.191Z,23.50
2018-08-28T18:44:57.731Z,23.20
2018-08-28T18:47:26.380Z,23.00
2018-08-28T18:49:55.133Z,22.80
2018-08-28T18:52:23.795Z,22.70
2018-08-28T18:54:52.349Z,22.60
2018-08-28T18:57:20.908Z,22.50
2018-08-28T18:59:49.487Z,22.20
2018-08-28T19:02:17.989Z,22.00
2018-08-28T19:04:46.532Z,21.90
2018-08-28T19:07:16.072Z,21.90
2018-08-28T19:09:44.619Z,21.70
2018-08-28T19:12:13.133Z,21.40
2018-08-28T19:14:41.670Z,21.30
2018-08-28T19:17:10.096Z,21.20
2018-08-28T19:19:38.678Z,21.20
2018-08-28T19:22:07.550Z,21.00
2018-08-28T19:24:37.101Z,20.90
2018-08-28T19:27:05.588Z,20.80
2018-08-28T19:29:34.141Z,20.70
2018-08-28T19:32:02.733Z,20.70
2018-08-28T19:34:31.184Z,20.60
2018-08-28T19:36:59.667Z,20.50
2018-08-28T19:39:28.506Z,20.50
2018-08-28T19:41:56.942Z,20.30
2018-08-28T19:44:25.778Z,20.30
2018-08-28T19:46:54.685Z,20.20
2018-08-28T19:49:23.182Z,20.00
2018-08-28T19:51:52.311Z,19.90
2018-08-28T19:54:20.784Z,19.80
2018-08-28T19:56:49.326Z,19.80
2018-08-28T19:59:17.752Z,19.60
2018-08-28T20:01:46.224Z,19.60
2018-08-28T20:04:14.823Z,19.60
2018-08-28T20:06:43.264Z,19.50
2018-08-28T20:09:11.895Z,19.40
2018-08-28T20:11:40.437Z,19.30
2018-08-28T20:14:08.917Z,19.20
2018-08-28T20:16:40.116Z,19.10
2018-08-28T20:19:08.580Z,19.00
2018-08-28T20:21:37.122Z,19.00
2018-08-28T20:24:05.992Z,19.00
2018-08-28T20:26:34.499Z,18.90
2018-08-28T20:29:03.168Z,18.90
2018-08-28T20:31:31.660Z,18.80
2018-08-28T20:34:00.355Z,18.60
2018-08-28T20:36:28.968Z,18.50
2018-08-28T20:38:57.515Z,18.40
2018-08-28T20:41:26.097Z,18.40
2018-08-28T20:43:54.607Z,18.30
2018-08-28T20:46:23.044Z,18.30
2018-08-28T20:48:51.484Z,18.20
2018-08-28T20:51:20.210Z,18.20
2018-08-28T20:53:48.785Z,18.10
2018-08-28T20:56:17.280Z,18.10
2018-08-28T20:58:45.771Z,18.00
2018-08-28T21:01:14.616Z,18.00
2018-08-28T21:03:43.198Z,17.90
2018-08-28T21:06:11.737Z,17.80
2018-08-28T21:08:40.287Z,17.70
2018-08-28T21:11:08.715Z,17.70
2018-08-28T21:13:37.332Z,17.80
2018-08-28T21:16:06.267Z,17.60
2018-08-28T21:18:35.137Z,17.50
2018-08-28T21:21:03.763Z,17.40
2018-08-28T21:23:32.596Z,17.40
2018-08-28T21:26:00.984Z,17.40
2018-08-28T21:28:29.519Z,17.30
2018-08-28T21:30:58.120Z,17.20
2018-08-28T21:33:26.528Z,17.10
2018-08-28T21:35:55.098Z,17.10
2018-08-28T21:38:23.691Z,17.00
2018-08-28T21:40:52.216Z,17.00
2018-08-28T21:43:20.823Z,16.90
2018-08-28T21:45:51.577Z,16.90
2018-08-28T21:48:20.319Z,16.90
2018-08-28T21:50:49.138Z,16.90
2018-08-28T21:53:17.746Z,16.90
2018-08-28T21:55:46.224Z,16.90
2018-08-28T21:58:14.808Z,16.90
2018-08-28T22:00:43.364Z,16.90
2018-08-28T22:03:11.808Z,16.90
2018-08-28T22:05:40.288Z,16.80
2018-08-28T22:08:08.731Z,16.80
2018-08-28T22:10:37.251Z,16.80
2018-08-28T22:13:05.652Z,16.70
2018-08-28T22:15:34.255Z,16.70
2018-08-28T22:18:02.720Z,16.70
2018-08-28T22:20:31.187Z,16.60
2018-08-28T22:22:59.721Z,16.60
2018-08-28T22:25:28.225Z,16.50
2018-08-28T22:27:56.670Z,16.50
2018-08-28T22:30:25.103Z,16.50
2018-08-28T22:32:53.720Z,16.50
2018-08-28T22:35:22.228Z,16.50
2018-08-28T22:37:50.618Z,16.50
2018-08-28T22:40:18.999Z,16.50
2018-08-28T22:42:47.474Z,16.60
2018-08-28T22:45:15.952Z,16.60
2018-08-28T22:47:44.519Z,16.60
2018-08-28T22:50:12.988Z,16.60
2018-08-28T22:52:41.457Z,16.60
2018-08-28T22:55:09.939Z,16.60
2018-08-28T22:57:38.388Z,16.60
2018-08-28T23:00:07.207Z,16.70
2018-08-28T23:02:35.731Z,16.60
2018-08-28T23:05:04.258Z,16.70
2018-08-28T23:07:32.706Z,16.70
2018-08-28T23:10:01.265Z,16.70
2018-08-28T23:12:29.802Z,16.70
2018-08-28T23:14:59.217Z,16.60
2018-08-28T23:17:27.959Z,16.60
2018-08-28T23:19:56.674Z,16.70
2018-08-28T23:22:25.203Z,16.60
2018-08-28T23:24:53.724Z,16.70
2018-08-28T23:27:22.143Z,16.70
2018-08-28T23:29:50.602Z,16.70
2018-08-28T23:32:19.109Z,16.70
2018-08-28T23:34:47.602Z,16.60
2018-08-28T23:37:16.103Z,16.50
2018-08-28T23:39:44.626Z,16.50
2018-08-28T23:42:13.102Z,16.40
2018-08-28T23:44:41.547Z,16.40
2018-08-28T23:47:10.148Z,16.30
2018-08-28T23:49:38.585Z,16.20
2018-08-28T23:52:07.290Z,16.20
2018-08-28T23:54:35.716Z,16.30
2018-08-28T23:57:04.180Z,16.30
2018-08-28T23:59:32.584Z,16.30
